sensor_id;sensor_type;location;lat;lon;timestamp;pressure;altitude;pressure_sealevel;temperature;humidity
9139;BME280;4604;48.616;9.548;2022-09-17T00:01:39;96539.78;;;10.27;100.00
9139;BME280;4604;48.616;9.548;2022-09-17T00:04:05;96541.16;;;10.31;100.00
9139;BME280;4604;48.616;9.548;2022-09-17T00:06:33;96540.91;;;10.24;100.00
9139;BME280;4604;48.616;9.548;2022-09-17T00:09:01;96532.34;;;10.13;100.00
9139;BME280;4604;48.616;9.548;2022-09-17T00:11:32;96542.59;;;10.16;100.00
9139;BME280;4604;48.616;9.548;2022-09-17T00:14:00;96532.06;;;10.16;100.00
9139;BME280;4604;48.616;9.548;2022-09-17T00:16:29;96523.66;;;10.02;100.00
9139;BME280;4604;48.616;9.548;2022-09-17T00:18:57;96542.31;;;10.19;100.00
9139;BME280;4604;48.616;9.548;2022-09-17T00:21:25;96530.72;;;10.02;100.00
9139;BME280;4604;48.616;9.548;2022-09-17T00:23:53;96539.09;;;9.97;100.00
9139;BME280;4604;48.616;9.548;2022-09-17T00:26:20;96543.69;;;9.95;100.00
9139;BME280;4604;48.616;9.548;2022-09-17T00:28:50;96545.03;;;9.99;100.00
9139;BME280;4604;48.616;9.548;2022-09-17T00:31:17;96551.41;;;9.97;100.00
9139;BME280;4604;48.616;9.548;2022-09-17T00:33:44;96551.16;;;10.00;100.00
9139;BME280;4604;48.616;9.548;2022-09-17T00:36:11;96553.38;;;9.95;100.00
9139;BME280;4604;48.616;9.548;2022-09-17T00:38:38;96544.53;;;9.86;100.00
9139;BME280;4604;48.616;9.548;2022-09-17T00:41:06;96538.47;;;9.76;100.00
9139;BME280;4604;48.616;9.548;2022-09-17T00:43:40;96553.13;;;9.88;100.00
9139;BME280;4604;48.616;9.548;2022-09-17T00:46:20;96554.34;;;9.94;100.00
9139;BME280;4604;48.616;9.548;2022-09-17T00:48:48;96548.81;;;9.87;100.00
9139;BME280;4604;48.616;9.548;2022-09-17T00:51:20;96549.53;;;9.79;100.00
9139;BME280;4604;48.616;9.548;2022-09-17T00:53:48;96551.75;;;9.84;100.00
9139;BME280;4604;48.616;9.548;2022-09-17T00:56:23;96554.00;;;9.79;100.00
9139;BME280;4604;48.616;9.548;2022-09-17T00:58:51;96556.91;;;9.85;100.00
9139;BME280;4604;48.616;9.548;2022-09-17T01:01:20;96562.69;;;9.89;100.00
9139;BME280;4604;48.616;9.548;2022-09-17T01:03:47;96562.13;;;9.95;100.00
9139;BME280;4604;48.616;9.548;2022-09-17T01:06:23;96552.44;;;9.86;100.00
9139;BME280;4604;48.616;9.548;2022-09-17T01:09:04;96559.94;;;9.91;100.00
9139;BME280;4604;48.616;9.548;2022-09-17T01:11:44;96560.78;;;9.81;100.00
9139;BME280;4604;48.616;9.548;2022-09-17T01:14:27;96541.66;;;9.70;100.00
9139;BME280;4604;48.616;9.548;2022-09-17T01:17:06;96565.22;;;9.81;100.00
9139;BME280;4604;48.616;9.548;2022-09-17T01:20:08;96556.91;;;9.76;100.00
9139;BME280;4604;48.616;9.548;2022-09-17T01:22:48;96562.00;;;9.87;100.00
9139;BME280;4604;48.616;9.548;2022-09-17T01:25:21;96570.19;;;9.84;100.00
9139;BME280;4604;48.616;9.548;2022-09-17T01:28:08;96566.47;;;9.77;100.00
9139;BME280;4604;48.616;9.548;2022-09-17T01:31:02;96568.16;;;9.78;100.00
9139;BME280;4604;48.616;9.548;2022-09-17T01:33:38;96566.47;;;9.77;100.00
9139;BME280;4604;48.616;9.548;2022-09-17T01:36:23;96568.81;;;9.80;100.00
9139;BME280;4604;48.616;9.548;2022-09-17T01:39:01;96564.53;;;9.79;100.00
9139;BME280;4604;48.616;9.548;2022-09-17T01:41:32;96569.81;;;9.79;100.00
9139;BME280;4604;48.616;9.548;2022-09-17T01:44:09;96568.03;;;9.70;100.00
9139;BME280;4604;48.616;9.548;2022-09-17T01:46:44;96569.81;;;9.79;100.00
9139;BME280;4604;48.616;9.548;2022-09-17T01:49:14;96570.63;;;9.79;100.00
9139;BME280;4604;48.616;9.548;2022-09-17T01:51:44;96570.50;;;9.81;100.00
9139;BME280;4604;48.616;9.548;2022-09-17T01:54:17;96567.16;;;9.79;100.00
9139;BME280;4604;48.616;9.548;2022-09-17T01:56:51;96575.78;;;9.81;100.00
9139;BME280;4604;48.616;9.548;2022-09-17T01:59:23;96562.72;;;9.79;100.00
9139;BME280;4604;48.616;9.548;2022-09-17T02:01:56;96568.66;;;9.91;100.00
9139;BME280;4604;48.616;9.548;2022-09-17T02:04:28;96568.38;;;9.84;100.00
9139;BME280;4604;48.616;9.548;2022-09-17T02:06:59;96572.53;;;9.87;100.00
9139;BME280;4604;48.616;9.548;2022-09-17T02:09:31;96575.34;;;9.85;100.00
9139;BME280;4604;48.616;9.548;2022-09-17T02:12:03;96570.34;;;9.82;100.00
9139;BME280;4604;48.616;9.548;2022-09-17T02:14:36;96574.06;;;9.90;100.00
9139;BME280;4604;48.616;9.548;2022-09-17T02:17:10;96575.75;;;9.91;100.00
9139;BME280;4604;48.616;9.548;2022-09-17T02:19:39;96547.06;;;9.78;100.00
9139;BME280;4604;48.616;9.548;2022-09-17T02:22:13;96573.78;;;9.93;100.00
9139;BME280;4604;48.616;9.548;2022-09-17T02:24:51;96560.75;;;9.91;100.00
9139;BME280;4604;48.616;9.548;2022-09-17T02:27:30;96563.09;;;9.94;100.00
9139;BME280;4604;48.616;9.548;2022-09-17T02:30:03;96560.75;;;9.91;100.00
9139;BME280;4604;48.616;9.548;2022-09-17T02:32:31;96565.16;;;10.00;100.00
9139;BME280;4604;48.616;9.548;2022-09-17T02:34:58;96557.84;;;9.84;100.00
9139;BME280;4604;48.616;9.548;2022-09-17T02:37:25;96572.41;;;9.89;100.00
9139;BME280;4604;48.616;9.548;2022-09-17T02:39:52;96559.53;;;9.85;100.00
9139;BME280;4604;48.616;9.548;2022-09-17T02:42:22;96568.56;;;9.83;100.00
9139;BME280;4604;48.616;9.548;2022-09-17T02:44:59;96564.81;;;9.85;100.00
9139;BME280;4604;48.616;9.548;2022-09-17T02:50:41;96563.50;;;9.90;100.00
9139;BME280;4604;48.616;9.548;2022-09-17T02:53:22;96552.56;;;9.84;100.00
9139;BME280;4604;48.616;9.548;2022-09-17T02:56:01;96540.00;;;9.78;100.00
9139;BME280;4604;48.616;9.548;2022-09-17T02:58:36;96547.88;;;9.88;100.00
9139;BME280;4604;48.616;9.548;2022-09-17T03:01:11;96540.53;;;9.82;100.00
9139;BME280;4604;48.616;9.548;2022-09-17T03:03:43;96555.53;;;9.72;100.00
9139;BME280;4604;48.616;9.548;2022-09-17T03:06:12;96549.16;;;9.64;100.00
9139;BME280;4604;48.616;9.548;2022-09-17T03:08:40;96549.75;;;9.58;100.00
9139;BME280;4604;48.616;9.548;2022-09-17T03:11:10;96550.31;;;9.52;100.00
9139;BME280;4604;48.616;9.548;2022-09-17T03:13:37;96550.84;;;9.56;100.00
9139;BME280;4604;48.616;9.548;2022-09-17T03:16:05;96548.94;;;9.48;100.00
9139;BME280;4604;48.616;9.548;2022-09-17T03:18:39;96549.59;;;9.60;100.00
9139;BME280;4604;48.616;9.548;2022-09-17T03:21:07;96548.22;;;9.56;100.00
9139;BME280;4604;48.616;9.548;2022-09-17T03:23:36;96548.13;;;9.38;100.00
9139;BME280;4604;48.616;9.548;2022-09-17T03:26:03;96557.94;;;9.46;100.00
9139;BME280;4604;48.616;9.548;2022-09-17T03:28:30;96544.34;;;9.50;100.00
9139;BME280;4604;48.616;9.548;2022-09-17T03:30:57;96556.84;;;9.38;100.00
9139;BME280;4604;48.616;9.548;2022-09-17T03:33:23;96546.19;;;9.40;100.00
9139;BME280;4604;48.616;9.548;2022-09-17T03:35:50;96559.47;;;9.38;100.00
9139;BME280;4604;48.616;9.548;2022-09-17T03:38:19;96564.91;;;9.37;100.00
9139;BME280;4604;48.616;9.548;2022-09-17T03:40:56;96563.22;;;9.46;100.00
9139;BME280;4604;48.616;9.548;2022-09-17T03:43:22;96561.97;;;9.50;100.00
9139;BME280;4604;48.616;9.548;2022-09-17T03:45:49;96555.88;;;9.49;100.00
9139;BME280;4604;48.616;9.548;2022-09-17T03:48:16;96561.69;;;9.43;100.00
9139;BME280;4604;48.616;9.548;2022-09-17T03:50:42;96563.91;;;9.48;100.00
9139;BME280;4604;48.616;9.548;2022-09-17T03:53:09;96574.16;;;9.51;100.00
9139;BME280;4604;48.616;9.548;2022-09-17T03:55:38;96568.34;;;9.47;100.00
9139;BME280;4604;48.616;9.548;2022-09-17T03:58:05;96569.47;;;9.35;100.00
9139;BME280;4604;48.616;9.548;2022-09-17T04:00:32;96563.38;;;9.25;100.00
9139;BME280;4604;48.616;9.548;2022-09-17T04:03:01;96566.72;;;9.27;100.00
9139;BME280;4604;48.616;9.548;2022-09-17T04:05:28;96572.81;;;9.27;100.00
9139;BME280;4604;48.616;9.548;2022-09-17T04:07:55;96575.44;;;9.37;100.00
9139;BME280;4604;48.616;9.548;2022-09-17T04:10:21;96581.25;;;9.31;100.00
9139;BME280;4604;48.616;9.548;2022-09-17T04:12:49;96579.03;;;9.36;100.00
9139;BME280;4604;48.616;9.548;2022-09-17T04:15:16;96578.31;;;9.34;100.00
9139;BME280;4604;48.616;9.548;2022-09-17T04:17:43;96556.03;;;9.28;100.00
9139;BME280;4604;48.616;9.548;2022-09-17T04:20:10;96580.41;;;9.40;100.00
9139;BME280;4604;48.616;9.548;2022-09-17T04:22:36;96576.97;;;9.39;100.00
9139;BME280;4604;48.616;9.548;2022-09-17T04:25:04;96577.25;;;9.46;100.00
9139;BME280;4604;48.616;9.548;2022-09-17T04:27:30;96578.31;;;9.34;100.00
9139;BME280;4604;48.616;9.548;2022-09-17T04:29:59;96576.78;;;9.41;100.00
9139;BME280;4604;48.616;9.548;2022-09-17T04:32:26;96583.34;;;9.37;100.00
9139;BME280;4604;48.616;9.548;2022-09-17T04:34:52;96587.09;;;9.34;100.00
9139;BME280;4604;48.616;9.548;2022-09-17T04:37:19;96590.66;;;9.43;100.00
9139;BME280;4604;48.616;9.548;2022-09-17T04:39:46;96593.19;;;9.35;100.00
9139;BME280;4604;48.616;9.548;2022-09-17T04:42:14;96593.19;;;9.25;100.00
9139;BME280;4604;48.616;9.548;2022-09-17T04:44:41;96597.75;;;9.33;100.00
9139;BME280;4604;48.616;9.548;2022-09-17T04:47:09;96600.78;;;9.38;100.00
9139;BME280;4604;48.616;9.548;2022-09-17T04:49:38;96600.09;;;9.36;100.00
9139;BME280;4604;48.616;9.548;2022-09-17T04:52:05;96599.25;;;9.45;100.00
9139;BME280;4604;48.616;9.548;2022-09-17T04:54:32;96588.19;;;9.22;100.00
9139;BME280;4604;48.616;9.548;2022-09-17T04:56:59;96601.06;;;9.25;100.00
9139;BME280;4604;48.616;9.548;2022-09-17T04:59:26;96602.31;;;9.31;100.00
9139;BME280;4604;48.616;9.548;2022-09-17T05:01:52;96611.91;;;9.32;100.00
9139;BME280;4604;48.616;9.548;2022-09-17T05:04:21;96609.38;;;9.30;100.00
9139;BME280;4604;48.616;9.548;2022-09-17T05:06:47;96605.09;;;9.29;100.00
9139;BME280;4604;48.616;9.548;2022-09-17T05:09:14;96617.16;;;9.22;100.00
9139;BME280;4604;48.616;9.548;2022-09-17T05:11:41;96605.53;;;9.15;100.00
9139;BME280;4604;48.616;9.548;2022-09-17T05:14:08;96600.38;;;9.04;100.00
9139;BME280;4604;48.616;9.548;2022-09-17T05:16:41;96630.16;;;9.24;100.00
9139;BME280;4604;48.616;9.548;2022-09-17T05:19:07;96625.47;;;9.27;100.00
9139;BME280;4604;48.616;9.548;2022-09-17T05:21:39;96631.28;;;9.21;100.00
9139;BME280;4604;48.616;9.548;2022-09-17T05:24:06;96638.47;;;9.29;100.00
9139;BME280;4604;48.616;9.548;2022-09-17T05:26:33;96629.91;;;9.17;100.00
9139;BME280;4604;48.616;9.548;2022-09-17T05:29:00;96641.28;;;9.27;100.00
9139;BME280;4604;48.616;9.548;2022-09-17T05:31:26;96642.63;;;9.21;100.00
9139;BME280;4604;48.616;9.548;2022-09-17T05:33:53;96647.50;;;9.16;100.00
9139;BME280;4604;48.616;9.548;2022-09-17T05:36:20;96640.00;;;9.12;100.00
9139;BME280;4604;48.616;9.548;2022-09-17T05:38:48;96636.13;;;9.16;100.00
9139;BME280;4604;48.616;9.548;2022-09-17T05:41:15;96639.34;;;9.19;100.00
9139;BME280;4604;48.616;9.548;2022-09-17T05:43:42;96646.66;;;9.16;100.00
9139;BME280;4604;48.616;9.548;2022-09-17T05:46:09;96645.97;;;9.24;100.00
9139;BME280;4604;48.616;9.548;2022-09-17T05:48:36;96624.06;;;9.04;100.00
9139;BME280;4604;48.616;9.548;2022-09-17T05:51:03;96646.53;;;9.17;100.00
9139;BME280;4604;48.616;9.548;2022-09-17T05:53:30;96643.63;;;9.30;100.00
9139;BME280;4604;48.616;9.548;2022-09-17T05:55:59;96638.66;;;9.37;100.00
9139;BME280;4604;48.616;9.548;2022-09-17T05:58:25;96644.59;;;9.29;100.00
9139;BME280;4604;48.616;9.548;2022-09-17T06:00:53;96633.91;;;9.21;100.00
9139;BME280;4604;48.616;9.548;2022-09-17T06:03:20;96643.22;;;9.25;100.00
9139;BME280;4604;48.616;9.548;2022-09-17T06:05:52;96653.44;;;9.18;100.00
9139;BME280;4604;48.616;9.548;2022-09-17T06:08:20;96650.69;;;9.20;100.00
9139;BME280;4604;48.616;9.548;2022-09-17T06:10:47;96634.06;;;9.10;100.00
9139;BME280;4604;48.616;9.548;2022-09-17T06:13:15;96649.72;;;9.21;100.00
9139;BME280;4604;48.616;9.548;2022-09-17T06:15:47;96655.41;;;9.36;100.00
9139;BME280;4604;48.616;9.548;2022-09-17T06:18:14;96646.53;;;9.47;100.00
9139;BME280;4604;48.616;9.548;2022-09-17T06:20:41;96661.38;;;9.48;100.00
9139;BME280;4604;48.616;9.548;2022-09-17T06:23:07;96648.75;;;9.32;100.00
9139;BME280;4604;48.616;9.548;2022-09-17T06:25:38;96656.91;;;9.38;100.00
9139;BME280;4604;48.616;9.548;2022-09-17T06:28:05;96654.28;;;9.38;100.00
9139;BME280;4604;48.616;9.548;2022-09-17T06:30:33;96657.31;;;9.24;100.00
9139;BME280;4604;48.616;9.548;2022-09-17T06:33:01;96661.66;;;9.35;100.00
9139;BME280;4604;48.616;9.548;2022-09-17T06:35:28;96665.53;;;9.50;100.00
9139;BME280;4604;48.616;9.548;2022-09-17T06:37:55;96674.81;;;9.45;100.00
9139;BME280;4604;48.616;9.548;2022-09-17T06:40:22;96667.34;;;9.50;100.00
9139;BME280;4604;48.616;9.548;2022-09-17T06:42:49;96674.81;;;9.45;100.00
9139;BME280;4604;48.616;9.548;2022-09-17T06:45:16;96640.88;;;9.22;100.00
9139;BME280;4604;48.616;9.548;2022-09-17T06:47:44;96673.00;;;9.55;100.00
9139;BME280;4604;48.616;9.548;2022-09-17T06:50:11;96676.88;;;9.70;100.00
9139;BME280;4604;48.616;9.548;2022-09-17T06:52:37;96676.88;;;9.70;100.00
9139;BME280;4604;48.616;9.548;2022-09-17T06:55:04;96677.72;;;9.80;100.00
9139;BME280;4604;48.616;9.548;2022-09-17T06:57:31;96668.84;;;9.72;100.00
9139;BME280;4604;48.616;9.548;2022-09-17T06:59:58;96674.13;;;9.62;100.00
9139;BME280;4604;48.616;9.548;2022-09-17T07:02:25;96670.50;;;9.43;100.00
9139;BME280;4604;48.616;9.548;2022-09-17T07:04:53;96678.69;;;9.60;100.00
9139;BME280;4604;48.616;9.548;2022-09-17T07:07:19;96695.31;;;9.60;100.00
9139;BME280;4604;48.616;9.548;2022-09-17T07:09:46;96696.03;;;9.72;100.00
9139;BME280;4604;48.616;9.548;2022-09-17T07:12:13;96690.06;;;9.51;100.00
9139;BME280;4604;48.616;9.548;2022-09-17T07:14:40;96700.19;;;9.55;100.00
9139;BME280;4604;48.616;9.548;2022-09-17T07:17:06;96707.97;;;9.57;100.00
9139;BME280;4604;48.616;9.548;2022-09-17T07:19:33;96692.56;;;9.52;100.00
9139;BME280;4604;48.616;9.548;2022-09-17T07:22:01;96703.38;;;9.49;100.00
9139;BME280;4604;48.616;9.548;2022-09-17T07:24:28;96700.06;;;9.47;100.00
9139;BME280;4604;48.616;9.548;2022-09-17T07:26:55;96705.19;;;9.49;100.00
9139;BME280;4604;48.616;9.548;2022-09-17T07:29:22;96702.97;;;9.54;100.00
9139;BME280;4604;48.616;9.548;2022-09-17T07:31:50;96701.16;;;9.54;100.00
9139;BME280;4604;48.616;9.548;2022-09-17T07:34:17;96699.34;;;9.45;100.00
9139;BME280;4604;48.616;9.548;2022-09-17T07:36:44;96704.50;;;9.47;100.00
9139;BME280;4604;48.616;9.548;2022-09-17T07:39:12;96705.03;;;9.50;100.00
9139;BME280;4604;48.616;9.548;2022-09-17T07:41:39;96703.91;;;9.43;100.00
9139;BME280;4604;48.616;9.548;2022-09-17T07:44:06;96707.13;;;9.47;100.00
9139;BME280;4604;48.616;9.548;2022-09-17T07:46:34;96706.44;;;9.45;100.00
9139;BME280;4604;48.616;9.548;2022-09-17T07:49:01;96713.91;;;9.49;100.00
9139;BME280;4604;48.616;9.548;2022-09-17T07:51:28;96708.25;;;9.54;100.00
9139;BME280;4604;48.616;9.548;2022-09-17T07:53:56;96717.78;;;9.55;100.00
9139;BME280;4604;48.616;9.548;2022-09-17T07:56:25;96709.19;;;9.53;100.00
9139;BME280;4604;48.616;9.548;2022-09-17T07:58:52;96720.44;;;9.55;100.00
9139;BME280;4604;48.616;9.548;2022-09-17T08:01:19;96728.31;;;9.45;100.00
9139;BME280;4604;48.616;9.548;2022-09-17T08:03:48;96729.28;;;9.34;100.00
9139;BME280;4604;48.616;9.548;2022-09-17T08:06:18;96743.25;;;9.15;100.00
9139;BME280;4604;48.616;9.548;2022-09-17T08:12:00;96742.53;;;9.13;100.00
9139;BME280;4604;48.616;9.548;2022-09-17T08:14:26;96746.69;;;9.06;100.00
9139;BME280;4604;48.616;9.548;2022-09-17T08:16:53;96745.31;;;9.12;100.00
9139;BME280;4604;48.616;9.548;2022-09-17T08:19:20;96735.16;;;8.97;100.00
9139;BME280;4604;48.616;9.548;2022-09-17T08:21:47;96759.13;;;9.04;100.00
9139;BME280;4604;48.616;9.548;2022-09-17T08:24:13;96753.63;;;9.07;100.00
9139;BME280;4604;48.616;9.548;2022-09-17T08:26:40;96755.81;;;9.02;100.00
9139;BME280;4604;48.616;9.548;2022-09-17T08:29:08;96759.72;;;9.08;100.00
9139;BME280;4604;48.616;9.548;2022-09-17T08:31:42;96764.28;;;9.06;100.00
9139;BME280;4604;48.616;9.548;2022-09-17T08:34:09;96753.06;;;9.13;100.00
9139;BME280;4604;48.616;9.548;2022-09-17T08:36:38;96758.91;;;9.07;100.00
9139;BME280;4604;48.616;9.548;2022-09-17T08:39:05;96762.22;;;9.19;100.00
9139;BME280;4604;48.616;9.548;2022-09-17T08:41:42;96752.94;;;9.05;100.00
9139;BME280;4604;48.616;9.548;2022-09-17T08:44:22;96763.72;;;9.12;100.00
9139;BME280;4604;48.616;9.548;2022-09-17T08:46:51;96767.47;;;9.09;100.00
9139;BME280;4604;48.616;9.548;2022-09-17T08:49:27;96760.78;;;8.95;100.00
9139;BME280;4604;48.616;9.548;2022-09-17T08:52:20;96761.50;;;8.97;100.00
9139;BME280;4604;48.616;9.548;2022-09-17T08:54:58;96766.19;;;8.94;100.00
9139;BME280;4604;48.616;9.548;2022-09-17T08:57:40;96758.28;;;8.94;100.00
9139;BME280;4604;48.616;9.548;2022-09-17T09:00:13;96770.44;;;8.85;100.00
9139;BME280;4604;48.616;9.548;2022-09-17T09:02:55;96774.06;;;8.94;100.00
9139;BME280;4604;48.616;9.548;2022-09-17T09:05:27;96774.78;;;8.96;100.00
9139;BME280;4604;48.616;9.548;2022-09-17T09:08:03;96769.53;;;9.06;100.00
9139;BME280;4604;48.616;9.548;2022-09-17T09:10:37;96762.75;;;9.03;100.00
9139;BME280;4604;48.616;9.548;2022-09-17T09:13:12;96775.94;;;9.13;100.00
9139;BME280;4604;48.616;9.548;2022-09-17T09:15:44;96767.75;;;9.06;100.00
9139;BME280;4604;48.616;9.548;2022-09-17T09:18:17;96774.25;;;9.12;100.00
9139;BME280;4604;48.616;9.548;2022-09-17T09:20:48;96768.03;;;9.13;100.00
9139;BME280;4604;48.616;9.548;2022-09-17T09:23:19;96770.31;;;9.27;100.00
9139;BME280;4604;48.616;9.548;2022-09-17T09:25:53;96764.22;;;9.27;100.00
9139;BME280;4604;48.616;9.548;2022-09-17T09:28:34;96765.19;;;9.35;100.00
9139;BME280;4604;48.616;9.548;2022-09-17T09:31:15;96760.22;;;9.42;100.00
9139;BME280;4604;48.616;9.548;2022-09-17T09:33:47;96772.69;;;9.50;100.00
9139;BME280;4604;48.616;9.548;2022-09-17T09:36:16;96769.66;;;9.54;100.00
9139;BME280;4604;48.616;9.548;2022-09-17T09:38:50;96776.19;;;9.60;100.00
9139;BME280;4604;48.616;9.548;2022-09-17T09:41:24;96774.38;;;9.70;100.00
9139;BME280;4604;48.616;9.548;2022-09-17T09:43:58;96772.59;;;9.71;100.00
9139;BME280;4604;48.616;9.548;2022-09-17T09:46:46;96772.72;;;9.98;100.00
9139;BME280;4604;48.616;9.548;2022-09-17T09:49:23;96766.22;;;10.02;100.00
9139;BME280;4604;48.616;9.548;2022-09-17T09:52:01;96772.31;;;9.93;100.00
9139;BME280;4604;48.616;9.548;2022-09-17T09:54:42;96764.94;;;9.97;100.00
9139;BME280;4604;48.616;9.548;2022-09-17T09:57:14;96759.97;;;9.84;100.00
9139;BME280;4604;48.616;9.548;2022-09-17T09:59:43;96767.59;;;9.87;100.00
9139;BME280;4604;48.616;9.548;2022-09-17T10:02:11;96766.47;;;9.90;100.00
9139;BME280;4604;48.616;9.548;2022-09-17T10:04:39;96748.72;;;9.82;100.00
9139;BME280;4604;48.616;9.548;2022-09-17T10:07:07;96750.94;;;9.86;100.00
9139;BME280;4604;48.616;9.548;2022-09-17T10:09:35;96748.00;;;10.19;100.00
9139;BME280;4604;48.616;9.548;2022-09-17T10:12:05;96750.63;;;10.19;100.00
9139;BME280;4604;48.616;9.548;2022-09-17T10:14:41;96740.41;;;10.06;100.00
9139;BME280;4604;48.616;9.548;2022-09-17T10:17:16;96757.44;;;10.12;100.00
9139;BME280;4604;48.616;9.548;2022-09-17T10:19:45;96754.25;;;10.18;100.00
9139;BME280;4604;48.616;9.548;2022-09-17T10:22:24;96764.53;;;10.21;100.00
9139;BME280;4604;48.616;9.548;2022-09-17T10:24:53;96764.94;;;10.26;100.00
9139;BME280;4604;48.616;9.548;2022-09-17T10:27:22;96765.78;;;10.36;100.00
9139;BME280;4604;48.616;9.548;2022-09-17T10:29:53;96756.78;;;10.29;100.00
9139;BME280;4604;48.616;9.548;2022-09-17T10:32:27;96752.31;;;10.20;100.00
9139;BME280;4604;48.616;9.548;2022-09-17T10:34:58;96753.03;;;10.32;100.00
9139;BME280;4604;48.616;9.548;2022-09-17T10:37:34;96752.03;;;10.42;100.00
9139;BME280;4604;48.616;9.548;2022-09-17T10:40:01;96768.56;;;10.35;100.00
9139;BME280;4604;48.616;9.548;2022-09-17T10:42:49;96758.03;;;10.35;100.00
9139;BME280;4604;48.616;9.548;2022-09-17T10:45:22;96768.56;;;10.35;100.00
9139;BME280;4604;48.616;9.548;2022-09-17T10:47:51;96759.97;;;10.33;100.00
9139;BME280;4604;48.616;9.548;2022-09-17T10:50:20;96768.00;;;10.41;100.00
9139;BME280;4604;48.616;9.548;2022-09-17T10:52:50;96764.94;;;10.36;100.00
9139;BME280;4604;48.616;9.548;2022-09-17T10:55:22;96760.06;;;10.21;100.00
9139;BME280;4604;48.616;9.548;2022-09-17T10:58:02;96774.53;;;10.17;100.00
9139;BME280;4604;48.616;9.548;2022-09-17T11:00:40;96780.25;;;10.32;100.00
9139;BME280;4604;48.616;9.548;2022-09-17T11:06:29;96764.44;;;10.69;100.00
9139;BME280;4604;48.616;9.548;2022-09-17T11:09:07;96762.44;;;10.91;100.00
9139;BME280;4604;48.616;9.548;2022-09-17T11:11:44;96752.22;;;11.06;100.00
9139;BME280;4604;48.616;9.548;2022-09-17T11:14:29;96748.59;;;11.52;100.00
9139;BME280;4604;48.616;9.548;2022-09-17T11:17:09;96708.41;;;11.85;100.00
9139;BME280;4604;48.616;9.548;2022-09-17T11:19:49;96727.31;;;12.52;96.83
9139;BME280;4604;48.616;9.548;2022-09-17T11:22:36;96729.38;;;12.40;95.38
9139;BME280;4604;48.616;9.548;2022-09-17T11:25:32;96741.38;;;12.08;89.57
9139;BME280;4604;48.616;9.548;2022-09-17T11:28:07;96751.69;;;11.93;91.01
9139;BME280;4604;48.616;9.548;2022-09-17T11:30:51;96737.69;;;11.83;94.85
9139;BME280;4604;48.616;9.548;2022-09-17T11:33:54;96737.63;;;11.93;88.05
9139;BME280;4604;48.616;9.548;2022-09-17T11:36:29;96739.50;;;12.01;89.32
9139;BME280;4604;48.616;9.548;2022-09-17T11:39:12;96729.75;;;12.01;87.85
9139;BME280;4604;48.616;9.548;2022-09-17T11:41:49;96717.53;;;12.52;89.81
9139;BME280;4604;48.616;9.548;2022-09-17T11:44:22;96722.97;;;12.77;81.09
9139;BME280;4604;48.616;9.548;2022-09-17T11:46:53;96727.09;;;12.71;75.11
9139;BME280;4604;48.616;9.548;2022-09-17T11:49:26;96725.84;;;12.57;76.72
9139;BME280;4604;48.616;9.548;2022-09-17T11:52:01;96719.00;;;12.47;75.99
9139;BME280;4604;48.616;9.548;2022-09-17T11:54:34;96723.53;;;12.54;76.11
9139;BME280;4604;48.616;9.548;2022-09-17T11:57:08;96712.22;;;12.44;75.21
9139;BME280;4604;48.616;9.548;2022-09-17T11:59:42;96701.19;;;12.57;75.48
9139;BME280;4604;48.616;9.548;2022-09-17T12:02:18;96699.22;;;12.59;76.81
9139;BME280;4604;48.616;9.548;2022-09-17T12:04:53;96703.41;;;12.70;74.43
9139;BME280;4604;48.616;9.548;2022-09-17T12:07:40;96705.59;;;12.82;72.30
9139;BME280;4604;48.616;9.548;2022-09-17T12:10:33;96705.25;;;12.77;73.62
9139;BME280;4604;48.616;9.548;2022-09-17T12:13:06;96699.56;;;12.64;71.38
9139;BME280;4604;48.616;9.548;2022-09-17T12:15:42;96692.75;;;12.88;72.34
9139;BME280;4604;48.616;9.548;2022-09-17T12:18:20;96676.47;;;12.82;68.46
9139;BME280;4604;48.616;9.548;2022-09-17T12:20:53;96700.03;;;12.94;67.09
9139;BME280;4604;48.616;9.548;2022-09-17T12:23:30;96686.44;;;12.89;62.96
9139;BME280;4604;48.616;9.548;2022-09-17T12:26:04;96681.97;;;12.89;64.12
9139;BME280;4604;48.616;9.548;2022-09-17T12:28:38;96682.75;;;12.73;66.14
9139;BME280;4604;48.616;9.548;2022-09-17T12:31:13;96681.75;;;12.74;65.81
9139;BME280;4604;48.616;9.548;2022-09-17T12:33:46;96670.81;;;12.69;67.21
9139;BME280;4604;48.616;9.548;2022-09-17T12:36:26;96685.28;;;12.83;66.19
9139;BME280;4604;48.616;9.548;2022-09-17T12:39:31;96680.91;;;12.66;67.03
9139;BME280;4604;48.616;9.548;2022-09-17T12:42:11;96681.84;;;12.56;65.74
9139;BME280;4604;48.616;9.548;2022-09-17T12:44:55;96684.50;;;12.56;68.19
9139;BME280;4604;48.616;9.548;2022-09-17T12:50:50;96690.34;;;12.16;74.35
9139;BME280;4604;48.616;9.548;2022-09-17T12:53:23;96681.69;;;12.06;78.45
9139;BME280;4604;48.616;9.548;2022-09-17T12:56:01;96686.34;;;12.12;78.42
9139;BME280;4604;48.616;9.548;2022-09-17T13:01:21;96697.09;;;11.92;82.52
9139;BME280;4604;48.616;9.548;2022-09-17T13:03:54;96705.59;;;11.96;83.61
9139;BME280;4604;48.616;9.548;2022-09-17T13:09:46;96725.81;;;11.69;90.05
9139;BME280;4604;48.616;9.548;2022-09-17T13:12:26;96730.84;;;11.45;90.51
9139;BME280;4604;48.616;9.548;2022-09-17T13:17:57;96721.88;;;10.82;98.64
9139;BME280;4604;48.616;9.548;2022-09-17T13:20:30;96715.28;;;10.96;98.80
9139;BME280;4604;48.616;9.548;2022-09-17T13:22:59;96714.16;;;10.99;99.72
9139;BME280;4604;48.616;9.548;2022-09-17T13:25:26;96708.78;;;11.18;100.00
9139;BME280;4604;48.616;9.548;2022-09-17T13:28:06;96718.69;;;11.34;99.75
9139;BME280;4604;48.616;9.548;2022-09-17T13:30:54;96714.88;;;11.46;100.00
9139;BME280;4604;48.616;9.548;2022-09-17T13:33:52;96715.53;;;11.48;100.00
9139;BME280;4604;48.616;9.548;2022-09-17T13:36:37;96727.78;;;11.49;100.00
9139;BME280;4604;48.616;9.548;2022-09-17T13:39:06;96720.72;;;11.22;97.83
9139;BME280;4604;48.616;9.548;2022-09-17T13:41:35;96743.38;;;11.25;100.00
9139;BME280;4604;48.616;9.548;2022-09-17T13:44:06;96748.28;;;11.38;96.28
9139;BME280;4604;48.616;9.548;2022-09-17T13:46:35;96758.28;;;11.16;97.86
9139;BME280;4604;48.616;9.548;2022-09-17T13:49:10;96749.22;;;10.91;83.69
9139;BME280;4604;48.616;9.548;2022-09-17T13:51:50;96768.28;;;10.85;87.54
9139;BME280;4604;48.616;9.548;2022-09-17T13:54:20;96766.94;;;10.71;93.28
9139;BME280;4604;48.616;9.548;2022-09-17T13:57:02;96771.97;;;10.64;95.55
9139;BME280;4604;48.616;9.548;2022-09-17T13:59:34;96768.25;;;10.47;93.97
9139;BME280;4604;48.616;9.548;2022-09-17T14:02:33;96788.13;;;10.42;100.00
9139;BME280;4604;48.616;9.548;2022-09-17T14:05:24;96785.09;;;10.07;100.00
9139;BME280;4604;48.616;9.548;2022-09-17T14:08:09;96776.59;;;9.94;100.00